Aérodrome :
LOGIN :

S'inscrire | Disclaimer

   EN    FR    IT 

 










Légende :    VFR   VFR Marginal   IFR   IFR Intensif   IFR Très Intensif
Visi : 
Plafond : 
>= 8 km
>= 3000ft
5 à 8 km
1000 à 3000 ft
1500m à 5 km
500 à 1000 ft
800 à 1500m
200 à 500 ft
< 800m
< 200 ft
Symboles :   Orages  Brouillard  Fortes neiges  Fortes précipitations  Vent > 20 kt
SIGMETs :   Divers  Orages  Givrage  Turbulence  Onde Orograph.  Cendres Volcan.






- Altitude de l'aérodrome : 614 ft
- Code IATA : CRL


EBCI - Charleroi

DERNIER METAR :
  • 271050Z VRB02KT 8000 NSC 06/04 Q1019 NOSIG

METARs EXPIRÉS :
  • 271020Z VRB02KT 7000 NSC 06/04 Q1019 NOSIG
  • 270950Z 12002KT 5000 BR NSC 05/04 Q1019 BECMG 8000 NSW
  • 270920Z VRB01KT 5000 BR NSC 04/03 Q1019 BECMG 8000 NSW
  • 270850Z 18003KT 150V210 4500 BR NSC 03/02 Q1019 BECMG 6000 NSW
  • 270820Z 14002KT 4500 BR NSC 02/02 Q1019 BECMG 6000 NSW
  • 270750Z 16002KT 3000 BR NSC 02/01 Q1019 BECMG 5000 BR

TAF TAF EBCI
Valide du 27 à 06h jusqu'au 28 à 12h UTC


270510Z 2706/2812 VRB02KT 4000 BR FEW035
TEMPO 2706/2711 0300 FG BKN001
TEMPO 2711/2713 2500 BKN005
PROB40
TEMPO 2713/2719 7000 NSW
PROB40
TEMPO 2800/2809 1200 BCFG



MET'MAP, la Météo Aéronautique d'un coup d'oeil ! - Copyright ORBIFLY Décembre 2007 - Disclaimer

ORBIFLY MET'MAP TEAM :

Programmation & Développement : Alexandra Zaïnal
Sur une idée originale de : Baudouin d'Aumeries
Assistance à la programmation : Marc-Olivier Méhu
Soutien technique & logistique : Manuel Goepfert

Contact : metmap@orbifly.com




SOURCES & CREDITS :

   NOAA